Port Au Choix, Canada
Current Conditions -  °F | °C
As of 12:00 AM on Sunday 21 Dec 2014 (Local Time) from CWDH Reporting Station
Overcast Overcast  
Wind Chill: 16°   Ceiling: 2100
Heat Index: 24°   Visibility: 9mi
Dew Point: 18°   Wind: 7mph
Humidity: 77%   Direction: 170°S
Pressure: 30.3"   Gusts: NA
Location:  50.72°N, 57.37°W
Report Text: CWDH 210300Z AUTO 17006KT 9SM OVC021 M04/M08 A3030 RMK SLP261 T10451079 70006 WSI/SWOB
Loading
Personal Weather Stations






























Interactive Weather Map New forecast layout! Learn more

10-Day Weather Forecast

Advertisements
Track Severe Weather on mobile